< < Back
Terminal Aerodrome Forecast


Current Version              Previous Versions:   1  2  3  4  5  6  7  8  9  

Terminal Aerodrome Forecast

347
FTUS42 KTAE 022333
TAFVLD
TAF
KVLD 022333Z 0300/0324 20003KT P6SM SCT040 BKN250
     FM030900 00000KT 4SM BR BKN015
      TEMPO 0310/0313 1SM BR SCT002 BKN005
     FM031500 21007KT P6SM BKN040
     FM031800 24008KT 5SM TSRA BKN035CB=

Latest METAR

370
SAUS70 KWBC 030700 RRH
MTRVLD
METAR KVLD 030653Z AUTO 19004KT 10SM FEW036 22/21 A2991 RMK AO2 SLP136
T02170206


USA.gov is the U.S. government's official web portal to all federal, state and local government web resources and services.